Nearby METAR Reports

 

NZCH - Christchurch Int, New Zealand
Distance from station: W 10km
Updated: 05 Aug 2021 00:00
Mostly cloudy
Mostly cloudy
 Wind from ENE
Wind: ENE 24 km/h
Temperature: 7°C
Wind Chill: 3°C
Dew Point: 5°C
Humidity: 87%
Barometer: 1005 hPa
Clouds: Mostly cloudy
Visibility: 10 km
Cloud details: Mostly cloudy 488 m
2021/08/04 12:00 NZCH 041200Z AUTO 06013KT 9999 BKN016/// 07/05 Q1005 TEMPO BKN012